createdAt,value
2019-02-15T00:00:56.472Z,62.95
2019-02-15T00:03:26.406Z,62.74
2019-02-15T00:05:56.279Z,62.73
2019-02-15T00:08:26.507Z,62.15
2019-02-15T00:10:56.729Z,62.33
2019-02-15T00:13:26.955Z,61.86
2019-02-15T00:15:56.895Z,61.43
2019-02-15T00:18:40.000Z,60.18
2019-02-15T00:21:16.703Z,59.71
2019-02-15T00:23:46.645Z,60.74
2019-02-15T00:26:16.906Z,60.78
2019-02-15T00:28:48.471Z,60.75
2019-02-15T00:31:20.860Z,60.63
2019-02-15T00:33:50.803Z,60.74
2019-02-15T00:36:21.840Z,60.54
2019-02-15T00:38:51.783Z,61.24
2019-02-15T00:41:21.736Z,61.28
2019-02-15T00:43:51.603Z,61.07
2019-02-15T00:46:32.319Z,60.97
2019-02-15T00:49:03.048Z,61.27
2019-02-15T00:51:58.293Z,61.01
2019-02-15T00:54:36.605Z,61.58
2019-02-15T00:57:24.691Z,61.53
2019-02-15T01:00:14.505Z,61.27
2019-02-15T01:02:49.611Z,61.61
2019-02-15T01:05:53.938Z,61.50
2019-02-15T01:08:39.471Z,61.27
2019-02-15T01:11:23.142Z,60.70
2019-02-15T01:13:53.083Z,60.21
2019-02-15T01:16:23.029Z,58.68
2019-02-15T01:18:53.096Z,58.84
2019-02-15T01:21:23.032Z,58.23
2019-02-15T01:23:53.057Z,58.90
2019-02-15T01:26:34.504Z,59.60
2019-02-15T01:29:23.364Z,60.08
2019-02-15T01:32:11.320Z,59.58
2019-02-15T01:34:58.914Z,60.15
2019-02-15T01:37:47.871Z,59.98
2019-02-15T01:40:27.571Z,60.59
2019-02-15T01:43:14.631Z,61.16
2019-02-15T01:45:53.953Z,61.38
2019-02-15T01:48:23.819Z,61.20
2019-02-15T01:50:53.693Z,60.70
2019-02-15T01:53:23.648Z,60.56
2019-02-15T01:55:53.458Z,60.98
2019-02-15T01:58:23.411Z,61.23
2019-02-15T02:00:53.359Z,61.40
2019-02-15T02:03:23.637Z,61.29
2019-02-15T02:05:53.511Z,61.50
2019-02-15T02:08:25.706Z,61.47
2019-02-15T02:10:55.648Z,60.95
2019-02-15T02:13:25.715Z,60.62
2019-02-15T02:15:55.911Z,60.71
2019-02-15T02:18:25.781Z,61.22
2019-02-15T02:20:56.061Z,61.90
2019-02-15T02:23:26.022Z,61.61
2019-02-15T02:25:55.893Z,61.88
2019-02-15T02:28:26.166Z,61.55
2019-02-15T02:30:56.331Z,62.18
2019-02-15T02:33:26.265Z,62.53
2019-02-15T02:35:56.212Z,62.79
2019-02-15T02:38:26.091Z,61.38
2019-02-15T02:40:55.963Z,62.05
2019-02-15T02:43:25.906Z,62.75
2019-02-15T02:45:55.844Z,62.65
2019-02-15T02:48:25.795Z,62.53
2019-02-15T02:50:56.050Z,62.90
2019-02-15T02:53:25.915Z,63.14
2019-02-15T02:55:55.880Z,63.12
2019-02-15T02:58:25.830Z,63.26
2019-02-15T03:00:55.712Z,63.76
2019-02-15T03:03:25.502Z,63.86
2019-02-15T03:05:55.480Z,64.61
2019-02-15T03:08:25.359Z,64.21
2019-02-15T03:10:55.639Z,64.59
2019-02-15T03:13:25.425Z,64.84
2019-02-15T03:15:55.406Z,65.28
2019-02-15T03:18:25.271Z,65.54
2019-02-15T03:20:55.215Z,66.12
2019-02-15T03:23:25.100Z,66.44
2019-02-15T03:25:54.907Z,66.12
2019-02-15T03:28:24.840Z,66.06
2019-02-15T03:30:54.788Z,66.11
2019-02-15T03:33:25.019Z,66.32
2019-02-15T03:35:57.317Z,66.73
2019-02-15T03:38:36.232Z,66.73
2019-02-15T03:41:09.598Z,66.60
2019-02-15T03:43:39.542Z,66.84
2019-02-15T03:46:09.754Z,67.35
2019-02-15T03:48:40.289Z,67.39
2019-02-15T03:51:10.906Z,67.33
2019-02-15T03:53:41.146Z,67.01
2019-02-15T03:56:11.450Z,67.22
2019-02-15T03:58:43.035Z,67.84
2019-02-15T04:01:12.921Z,67.53
2019-02-15T04:03:42.947Z,67.91
2019-02-15T04:06:12.988Z,67.91
2019-02-15T04:08:42.968Z,67.93
2019-02-15T04:11:12.974Z,68.04
2019-02-15T04:13:42.899Z,68.03
2019-02-15T04:16:12.789Z,68.07
2019-02-15T04:18:42.763Z,67.99
2019-02-15T04:21:12.673Z,67.99
2019-02-15T04:23:42.713Z,67.62
2019-02-15T04:26:12.940Z,68.38
2019-02-15T04:28:42.855Z,68.73
2019-02-15T04:31:13.536Z,68.92
2019-02-15T04:33:43.540Z,68.90
2019-02-15T04:36:13.854Z,68.50
2019-02-15T04:38:44.234Z,68.63
2019-02-15T04:41:14.105Z,68.68
2019-02-15T04:43:44.350Z,68.83
2019-02-15T04:46:14.526Z,68.70
2019-02-15T04:48:45.358Z,69.04
2019-02-15T04:51:17.262Z,68.97
2019-02-15T04:53:47.978Z,68.68
2019-02-15T04:56:18.691Z,68.80
2019-02-15T04:58:49.428Z,69.17
2019-02-15T05:01:20.061Z,69.29
2019-02-15T05:03:50.301Z,69.33
2019-02-15T05:06:20.166Z,68.98
2019-02-15T05:08:50.342Z,68.92
2019-02-15T05:11:20.345Z,68.62
2019-02-15T05:13:51.715Z,68.76
2019-02-15T05:16:21.703Z,69.12
2019-02-15T05:18:51.704Z,69.09
2019-02-15T05:21:21.979Z,69.15
2019-02-15T05:23:52.276Z,68.63
2019-02-15T05:26:22.212Z,68.49
2019-02-15T05:28:52.146Z,68.41
2019-02-15T05:31:22.479Z,68.13
2019-02-15T05:33:52.798Z,67.78
2019-02-15T05:36:22.777Z,67.69
2019-02-15T05:38:53.104Z,67.98
2019-02-15T05:41:23.338Z,68.24
2019-02-15T05:43:53.683Z,68.43
2019-02-15T05:46:23.919Z,68.76
2019-02-15T05:48:53.803Z,68.51
2019-02-15T05:51:23.805Z,69.23
2019-02-15T05:53:54.090Z,69.21
2019-02-15T05:56:24.088Z,68.93
2019-02-15T05:58:54.020Z,69.11
2019-02-15T06:01:25.478Z,69.23
2019-02-15T06:03:55.429Z,69.08
2019-02-15T06:06:25.338Z,69.04
2019-02-15T06:08:55.271Z,69.46
2019-02-15T06:11:25.254Z,69.65
2019-02-15T06:13:55.989Z,69.83
2019-02-15T06:16:25.894Z,70.36
2019-02-15T06:18:56.269Z,70.55
2019-02-15T06:21:27.113Z,70.63
2019-02-15T06:23:57.102Z,70.42
2019-02-15T06:26:27.012Z,70.65
2019-02-15T06:28:56.951Z,70.65
2019-02-15T06:31:26.930Z,70.72
2019-02-15T06:33:59.625Z,70.64
2019-02-15T06:36:34.109Z,70.63
2019-02-15T06:39:05.885Z,70.62
2019-02-15T06:41:36.094Z,70.50
2019-02-15T06:44:06.080Z,70.76
2019-02-15T06:46:36.025Z,70.79
2019-02-15T06:49:05.983Z,70.89
2019-02-15T06:51:36.403Z,70.92
2019-02-15T06:54:06.728Z,71.51
2019-02-15T06:56:37.098Z,71.41
2019-02-15T06:59:25.036Z,71.27
2019-02-15T07:02:09.139Z,71.41
2019-02-15T07:04:44.440Z,71.44
2019-02-15T07:07:14.423Z,71.57
2019-02-15T07:09:44.540Z,71.57
2019-02-15T07:12:15.867Z,71.73
2019-02-15T07:14:48.664Z,71.88
2019-02-15T07:17:18.622Z,72.29
2019-02-15T07:19:49.697Z,72.09
2019-02-15T07:22:19.724Z,72.02
2019-02-15T07:24:49.684Z,72.26
2019-02-15T07:27:19.764Z,72.36
2019-02-15T07:29:49.779Z,72.45
2019-02-15T07:32:20.421Z,72.63
2019-02-15T07:34:51.603Z,72.55
2019-02-15T07:37:21.531Z,72.23
2019-02-15T07:39:51.517Z,72.25
2019-02-15T07:42:21.421Z,72.34
2019-02-15T07:44:51.700Z,72.49
2019-02-15T07:47:21.776Z,72.24
2019-02-15T07:49:52.117Z,72.06
2019-02-15T07:52:23.175Z,72.36
2019-02-15T07:54:53.461Z,72.02
2019-02-15T07:57:25.253Z,71.66
2019-02-15T07:59:55.357Z,72.16
2019-02-15T08:02:25.374Z,72.33
2019-02-15T08:04:55.569Z,71.72
2019-02-15T08:07:25.756Z,70.89
2019-02-15T08:09:56.399Z,70.32
2019-02-15T08:12:26.494Z,70.17
2019-02-15T08:14:56.733Z,69.39
2019-02-15T08:17:26.855Z,68.71
2019-02-15T08:19:56.940Z,68.05
2019-02-15T08:22:27.164Z,67.77
2019-02-15T08:24:58.340Z,67.54
2019-02-15T08:27:28.658Z,66.69
2019-02-15T08:29:59.233Z,65.93
2019-02-15T08:32:30.154Z,65.30
2019-02-15T08:35:00.284Z,64.98
2019-02-15T08:37:30.321Z,64.94
2019-02-15T08:40:00.548Z,64.93
2019-02-15T08:42:30.652Z,64.29
2019-02-15T08:45:01.043Z,63.80
2019-02-15T08:47:31.157Z,63.41
2019-02-15T08:50:01.148Z,63.33
2019-02-15T08:52:31.359Z,63.20
2019-02-15T08:55:01.487Z,62.88
2019-02-15T08:57:31.301Z,62.64
2019-02-15T09:00:01.349Z,62.62
2019-02-15T09:02:31.841Z,61.99
2019-02-15T09:05:02.264Z,61.98
2019-02-15T09:07:32.586Z,62.00
2019-02-15T09:10:05.826Z,61.46
2019-02-15T09:12:37.563Z,61.24
2019-02-15T09:15:11.038Z,61.14
2019-02-15T09:17:41.185Z,60.86
2019-02-15T09:20:11.917Z,60.70
2019-02-15T09:22:41.910Z,60.34
2019-02-15T09:25:12.232Z,59.89
2019-02-15T09:28:01.266Z,60.05
2019-02-15T09:30:32.442Z,59.64
2019-02-15T09:33:02.456Z,59.52
2019-02-15T09:35:32.712Z,59.61
2019-02-15T09:38:02.623Z,59.65
2019-02-15T09:40:32.935Z,59.66
2019-02-15T09:43:02.904Z,59.62
2019-02-15T09:45:33.107Z,59.85
2019-02-15T09:48:03.103Z,59.38
2019-02-15T09:50:33.128Z,59.17
2019-02-15T09:53:03.095Z,58.87
2019-02-15T09:55:33.061Z,59.12
2019-02-15T09:58:02.977Z,59.30
2019-02-15T10:00:32.963Z,58.66
2019-02-15T10:03:03.596Z,58.47
2019-02-15T10:05:33.558Z,58.68
2019-02-15T10:08:03.551Z,59.06
2019-02-15T10:10:33.489Z,57.84
2019-02-15T10:13:03.424Z,57.64
2019-02-15T10:15:33.631Z,57.25
2019-02-15T10:18:03.629Z,56.97
2019-02-15T10:20:33.643Z,57.21
2019-02-15T10:23:04.566Z,56.08
2019-02-15T10:25:34.520Z,55.90
2019-02-15T10:28:04.630Z,55.41
2019-02-15T10:30:34.679Z,55.36
2019-02-15T10:33:04.618Z,54.32
2019-02-15T10:35:34.580Z,55.02
2019-02-15T10:38:04.518Z,53.79
2019-02-15T10:40:34.819Z,54.38
2019-02-15T10:43:04.754Z,53.65
2019-02-15T10:45:34.711Z,53.65
2019-02-15T10:48:04.889Z,54.46
2019-02-15T10:50:34.881Z,53.84
2019-02-15T10:53:04.805Z,53.09
2019-02-15T10:55:34.971Z,51.32
2019-02-15T10:58:05.293Z,50.57
2019-02-15T11:00:35.392Z,50.63
2019-02-15T11:03:06.912Z,50.55
2019-02-15T11:05:37.084Z,50.81
2019-02-15T11:08:07.198Z,49.90
2019-02-15T11:10:37.423Z,50.29
2019-02-15T11:13:07.649Z,50.35
2019-02-15T11:15:37.596Z,50.00
2019-02-15T11:18:07.785Z,49.63
2019-02-15T11:20:39.014Z,48.49
2019-02-15T11:23:08.896Z,48.36
2019-02-15T11:25:38.776Z,48.39
2019-02-15T11:28:08.753Z,47.92
2019-02-15T11:30:38.900Z,47.97
2019-02-15T11:33:09.115Z,47.86
2019-02-15T11:35:38.993Z,47.70
2019-02-15T11:38:08.955Z,47.94
2019-02-15T11:40:38.914Z,48.48
2019-02-15T11:43:08.859Z,47.39
2019-02-15T11:45:38.743Z,46.30
2019-02-15T11:48:08.719Z,47.36
2019-02-15T11:50:38.586Z,46.75
2019-02-15T11:53:08.545Z,47.45
2019-02-15T11:55:38.509Z,47.27
2019-02-15T11:58:08.474Z,47.22
2019-02-15T12:00:38.424Z,47.07
2019-02-15T12:03:08.586Z,46.04
2019-02-15T12:05:38.543Z,47.14
2019-02-15T12:08:09.575Z,47.28
2019-02-15T12:10:39.782Z,47.10
2019-02-15T12:13:09.997Z,46.51
2019-02-15T12:15:39.968Z,46.31
2019-02-15T12:18:10.277Z,45.34
2019-02-15T12:20:40.160Z,45.57
2019-02-15T12:23:10.374Z,44.82
2019-02-15T12:25:40.266Z,44.30
2019-02-15T12:28:10.200Z,44.30
2019-02-15T12:30:40.462Z,43.97
2019-02-15T12:33:10.336Z,44.50
2019-02-15T12:35:40.760Z,45.41
2019-02-15T12:38:11.029Z,44.06
2019-02-15T12:40:40.971Z,43.94
2019-02-15T12:43:10.943Z,44.54
2019-02-15T12:45:40.922Z,44.65
2019-02-15T12:48:10.858Z,43.49
2019-02-15T12:50:40.830Z,44.21
2019-02-15T12:53:10.766Z,45.02
2019-02-15T12:55:41.408Z,44.40
2019-02-15T12:58:11.630Z,44.43
2019-02-15T13:00:41.896Z,43.94
2019-02-15T13:03:11.699Z,44.95
2019-02-15T13:05:41.953Z,45.44
2019-02-15T13:08:11.956Z,45.04
2019-02-15T13:10:43.155Z,45.58
2019-02-15T13:13:13.118Z,45.34
2019-02-15T13:15:44.098Z,45.60
2019-02-15T13:18:16.998Z,44.10
2019-02-15T13:20:46.951Z,44.32
2019-02-15T13:23:17.286Z,44.35
2019-02-15T13:25:47.432Z,43.62
2019-02-15T13:28:18.640Z,43.17
2019-02-15T13:30:48.508Z,43.02
2019-02-15T13:33:19.451Z,44.12
2019-02-15T13:35:49.404Z,43.50
2019-02-15T13:38:20.626Z,43.68
2019-02-15T13:40:50.706Z,43.69
2019-02-15T13:43:20.669Z,42.61
2019-02-15T13:45:50.671Z,42.20
2019-02-15T13:48:23.294Z,42.30
2019-02-15T13:50:54.574Z,42.18
2019-02-15T13:53:24.476Z,41.96
2019-02-15T13:55:54.705Z,41.07
2019-02-15T13:58:24.667Z,41.06
2019-02-15T14:00:54.608Z,40.90
2019-02-15T14:03:25.138Z,40.77
2019-02-15T14:05:55.118Z,41.90
2019-02-15T14:08:25.295Z,41.99
2019-02-15T14:10:55.482Z,41.94
2019-02-15T14:13:25.590Z,40.94
2019-02-15T14:15:55.558Z,40.10
2019-02-15T14:18:25.468Z,39.50
2019-02-15T14:20:55.789Z,39.01
2019-02-15T14:23:25.681Z,38.40
2019-02-15T14:25:55.846Z,38.28
2019-02-15T14:28:25.751Z,37.75
2019-02-15T14:30:55.708Z,37.18
2019-02-15T14:33:25.583Z,36.82
2019-02-15T14:35:55.550Z,36.49
2019-02-15T14:38:25.512Z,36.60
2019-02-15T14:40:55.710Z,36.37
2019-02-15T14:43:25.523Z,36.10
2019-02-15T14:45:55.478Z,35.91
2019-02-15T14:48:25.468Z,35.71
2019-02-15T14:50:55.825Z,35.96
2019-02-15T14:53:26.329Z,36.24
2019-02-15T14:55:56.290Z,36.13
2019-02-15T14:58:26.434Z,36.59
2019-02-15T15:00:56.766Z,36.98
2019-02-15T15:03:26.715Z,36.67
2019-02-15T15:05:57.642Z,36.37
2019-02-15T15:08:27.596Z,36.40
2019-02-15T15:10:57.606Z,36.45
2019-02-15T15:13:27.560Z,35.61
2019-02-15T15:15:57.512Z,35.87
2019-02-15T15:18:27.469Z,35.79
2019-02-15T15:20:57.630Z,35.54
2019-02-15T15:23:27.957Z,35.89
2019-02-15T15:25:58.221Z,35.49
2019-02-15T15:28:28.174Z,35.66
2019-02-15T15:30:58.142Z,36.49
2019-02-15T15:33:28.321Z,37.18
2019-02-15T15:35:58.486Z,37.90
2019-02-15T15:38:28.366Z,38.61
2019-02-15T15:40:58.404Z,38.88
2019-02-15T15:43:28.759Z,39.18
2019-02-15T15:45:58.715Z,39.56
2019-02-15T15:48:28.598Z,40.15
2019-02-15T15:50:59.319Z,41.28
2019-02-15T15:53:29.701Z,41.75
2019-02-15T15:56:00.020Z,41.93
2019-02-15T15:58:30.212Z,42.52
2019-02-15T16:01:00.167Z,42.25
2019-02-15T16:03:30.216Z,42.22
2019-02-15T16:06:02.808Z,42.53
2019-02-15T16:08:32.627Z,42.73
2019-02-15T16:11:02.589Z,42.74
2019-02-15T16:13:32.563Z,43.39
2019-02-15T16:16:02.466Z,43.17
2019-02-15T16:18:35.030Z,43.26
2019-02-15T16:21:05.974Z,43.33
2019-02-15T16:23:35.576Z,43.57
2019-02-15T16:26:05.775Z,43.83
2019-02-15T16:28:35.695Z,43.52
2019-02-15T16:31:05.991Z,43.92
2019-02-15T16:33:36.183Z,44.70
2019-02-15T16:36:07.032Z,45.17
2019-02-15T16:38:37.268Z,46.19
2019-02-15T16:41:08.200Z,45.77
2019-02-15T16:43:39.154Z,46.50
2019-02-15T16:46:09.115Z,47.43
2019-02-15T16:48:42.061Z,48.22
2019-02-15T16:51:10.958Z,48.08
2019-02-15T16:53:41.270Z,48.39
2019-02-15T16:56:11.226Z,49.00
2019-02-15T16:58:42.182Z,49.67
2019-02-15T17:01:12.551Z,49.99
2019-02-15T17:03:42.814Z,50.52
2019-02-15T17:06:13.107Z,50.18
2019-02-15T17:08:43.384Z,50.44
2019-02-15T17:11:13.768Z,50.67
2019-02-15T17:13:44.049Z,51.51
2019-02-15T17:16:14.002Z,51.15
2019-02-15T17:18:51.357Z,51.39
2019-02-15T17:21:16.201Z,51.31
2019-02-15T17:23:46.195Z,50.51
2019-02-15T17:26:16.153Z,50.17
2019-02-15T17:28:46.126Z,51.23
2019-02-15T17:31:17.365Z,50.62
2019-02-15T17:33:47.317Z,50.71
2019-02-15T17:36:18.924Z,51.49
2019-02-15T17:38:48.889Z,51.44
2019-02-15T17:41:18.752Z,51.29
2019-02-15T17:43:48.719Z,51.62
2019-02-15T17:46:18.659Z,51.88
2019-02-15T17:48:48.938Z,51.69
2019-02-15T17:51:18.877Z,51.39
2019-02-15T17:53:48.851Z,50.93
2019-02-15T17:56:21.623Z,50.82
2019-02-15T17:58:51.520Z,50.94
2019-02-15T18:01:22.168Z,50.82
2019-02-15T18:03:52.139Z,50.86
2019-02-15T18:06:22.079Z,51.11
2019-02-15T18:08:52.309Z,50.94
2019-02-15T18:11:22.179Z,51.28
2019-02-15T18:13:52.473Z,51.16
2019-02-15T18:16:22.398Z,51.00
2019-02-15T18:18:53.892Z,50.71
2019-02-15T18:21:24.141Z,51.15
2019-02-15T18:23:54.100Z,51.04
2019-02-15T18:26:23.972Z,51.06
2019-02-15T18:28:53.857Z,50.99
2019-02-15T18:31:23.735Z,51.03
2019-02-15T18:33:54.214Z,50.83
2019-02-15T18:36:24.560Z,50.57
2019-02-15T18:38:56.843Z,50.68
2019-02-15T18:41:26.995Z,50.52
2019-02-15T18:43:56.896Z,50.52
2019-02-15T18:46:26.847Z,50.71
2019-02-15T18:48:56.723Z,50.75
2019-02-15T18:51:26.670Z,50.52
2019-02-15T18:53:56.650Z,50.60
2019-02-15T18:56:26.654Z,50.67
2019-02-15T18:58:57.814Z,50.63
2019-02-15T19:01:27.740Z,50.48
2019-02-15T19:03:57.626Z,50.75
2019-02-15T19:06:29.468Z,50.60
2019-02-15T19:08:59.407Z,51.04
2019-02-15T19:11:29.472Z,51.43
2019-02-15T19:14:01.784Z,51.27
2019-02-15T19:16:31.759Z,51.37
2019-02-15T19:19:01.794Z,51.74
2019-02-15T19:21:31.846Z,52.08
2019-02-15T19:24:01.830Z,52.73
2019-02-15T19:26:34.300Z,53.05
2019-02-15T19:29:04.254Z,53.43
2019-02-15T19:31:34.638Z,53.49
2019-02-15T19:34:04.963Z,53.72
2019-02-15T19:36:37.336Z,53.71
2019-02-15T19:39:07.482Z,53.42
2019-02-15T19:41:37.613Z,53.67
2019-02-15T19:44:07.622Z,53.93
2019-02-15T19:46:38.622Z,53.45
2019-02-15T19:49:08.565Z,53.37
2019-02-15T19:51:38.573Z,53.96
2019-02-15T19:54:08.787Z,54.16
2019-02-15T19:56:40.217Z,54.44
2019-02-15T19:59:10.215Z,54.38
2019-02-15T20:01:40.554Z,55.04
2019-02-15T20:04:10.923Z,54.57
2019-02-15T20:06:40.811Z,54.34
2019-02-15T20:09:10.993Z,54.12
2019-02-15T20:11:41.670Z,53.61
2019-02-15T20:14:11.640Z,53.42
2019-02-15T20:16:42.714Z,53.03
2019-02-15T20:19:12.967Z,53.24
2019-02-15T20:21:44.553Z,53.12
2019-02-15T20:24:14.518Z,52.89
2019-02-15T20:26:44.472Z,52.84
2019-02-15T20:29:14.430Z,52.94
2019-02-15T20:31:44.382Z,53.21
2019-02-15T20:34:14.291Z,53.12
2019-02-15T20:36:44.249Z,53.57
2019-02-15T20:39:14.124Z,53.38
2019-02-15T20:41:44.252Z,53.48
2019-02-15T20:44:14.271Z,53.46
2019-02-15T20:46:44.594Z,53.24
2019-02-15T20:49:14.527Z,52.95
2019-02-15T20:51:44.413Z,52.88
2019-02-15T20:54:14.315Z,53.00
2019-02-15T20:56:44.240Z,52.97
2019-02-15T20:59:15.661Z,52.96
2019-02-15T21:01:45.576Z,52.95
2019-02-15T21:04:15.531Z,52.92
2019-02-15T21:06:45.483Z,53.06
2019-02-15T21:09:15.458Z,53.12
2019-02-15T21:11:45.420Z,53.23
2019-02-15T21:14:15.363Z,53.25
2019-02-15T21:16:45.237Z,53.62
2019-02-15T21:19:15.494Z,53.77
2019-02-15T21:21:47.088Z,53.61
2019-02-15T21:24:17.012Z,53.70
2019-02-15T21:26:46.978Z,53.47
2019-02-15T21:29:16.944Z,53.61
2019-02-15T21:31:47.056Z,53.76
2019-02-15T21:34:17.302Z,53.93
2019-02-15T21:36:47.475Z,53.91
2019-02-15T21:39:17.800Z,54.17
2019-02-15T21:41:47.764Z,54.17
2019-02-15T21:44:18.330Z,54.24
2019-02-15T21:46:48.874Z,54.48
2019-02-15T21:49:19.168Z,54.53
2019-02-15T21:51:49.128Z,54.41
2019-02-15T21:54:22.350Z,54.81
2019-02-15T21:56:52.308Z,55.33
2019-02-15T21:59:22.536Z,55.53
2019-02-15T22:01:52.763Z,55.68
2019-02-15T22:04:25.692Z,55.97
2019-02-15T22:06:55.970Z,56.38
2019-02-15T22:09:26.175Z,56.42
2019-02-15T22:11:56.399Z,56.63
2019-02-15T22:14:27.967Z,56.53
2019-02-15T22:16:57.845Z,56.39
2019-02-15T22:19:28.069Z,56.88
2019-02-15T22:21:58.024Z,57.08
2019-02-15T22:24:27.959Z,57.53
2019-02-15T22:26:58.177Z,57.57
2019-02-15T22:29:30.234Z,58.23
2019-02-15T22:32:00.122Z,58.62
2019-02-15T22:34:31.877Z,58.96
2019-02-15T22:37:05.189Z,58.87
2019-02-15T22:39:35.069Z,58.94
2019-02-15T22:42:05.055Z,58.22
2019-02-15T22:44:35.050Z,58.65
2019-02-15T22:47:05.000Z,58.62
2019-02-15T22:49:43.397Z,58.54
2019-02-15T22:52:08.714Z,58.34
2019-02-15T22:54:38.901Z,58.78
2019-02-15T22:57:08.772Z,59.03
2019-02-15T22:59:38.718Z,59.01
2019-02-15T23:02:10.487Z,59.62
2019-02-15T23:04:40.811Z,59.17
2019-02-15T23:07:10.689Z,59.58
2019-02-15T23:09:41.697Z,59.92
2019-02-15T23:12:11.910Z,59.95
2019-02-15T23:14:41.782Z,60.29
2019-02-15T23:17:11.778Z,60.70
2019-02-15T23:19:41.704Z,60.85
2019-02-15T23:22:11.610Z,61.18
2019-02-15T23:24:41.564Z,61.51
2019-02-15T23:27:30.988Z,61.76
2019-02-15T23:30:01.564Z,61.75
2019-02-15T23:32:31.353Z,61.90
2019-02-15T23:35:01.210Z,61.64
2019-02-15T23:37:37.779Z,61.31
2019-02-15T23:40:02.758Z,61.03
2019-02-15T23:42:32.620Z,60.83
2019-02-15T23:45:03.093Z,61.07
2019-02-15T23:47:33.308Z,61.04
2019-02-15T23:50:03.267Z,60.91
2019-02-15T23:52:33.203Z,60.97
2019-02-15T23:55:06.191Z,61.00
2019-02-15T23:57:36.106Z,61.03
